Time;durP1;ratioP1;P1;durP2;ratioP2;P2;SDS_P1;SDS_P2;PMS_P1;PMS_P2;Temp;Humidity;BMP_temperature;BMP_pressure;BME280_temperature;BME280_humidity;BME280_pressure;Samples;Min_cycle;Max_cycle;Signal;HPM_P1;HPM_P2
2021/12/09 00:01:05;;;;;;;6.20;4.47;;;;;;;;;;5086165;28;20210;-71
2021/12/09 00:03:34;;;;;;;4.43;3.37;;;;;;;;;;5086674;28;20637;-71
2021/12/09 00:06:04;;;;;;;6.83;4.40;;;;;;;;;;5079991;28;20965;-71
2021/12/09 00:08:32;;;;;;;8.27;4.40;;;;;;;;;;5089573;28;20209;-71
2021/12/09 00:11:00;;;;;;;8.87;4.60;;;;;;;;;;5089993;28;20212;-71
2021/12/09 00:13:28;;;;;;;7.50;4.37;;;;;;;;;;5089829;28;20222;-71
2021/12/09 00:15:55;;;;;;;8.83;4.60;;;;;;;;;;5090117;28;20755;-70
2021/12/09 00:18:22;;;;;;;7.07;4.17;;;;;;;;;;5089906;28;20231;-71
2021/12/09 00:20:50;;;;;;;5.20;4.07;;;;;;;;;;5089613;28;20722;-71
2021/12/09 00:23:18;;;;;;;5.00;3.73;;;;;;;;;;5090255;28;20205;-70
2021/12/09 00:25:46;;;;;;;5.27;3.93;;;;;;;;;;5089801;28;20202;-70
2021/12/09 00:28:27;;;;;;;9.73;4.10;;;;;;;;;;5089563;28;20208;-70
2021/12/09 00:30:55;;;;;;;5.90;3.80;;;;;;;;;;5087844;28;20281;-71
2021/12/09 00:33:22;;;;;;;6.10;4.10;;;;;;;;;;5088943;28;20233;-71
2021/12/09 00:35:55;;;;;;;9.93;4.10;;;;;;;;;;5089869;28;20217;-71
2021/12/09 00:38:33;;;;;;;4.17;3.43;;;;;;;;;;5089160;28;20261;-71
2021/12/09 00:41:01;;;;;;;4.47;3.57;;;;;;;;;;5089732;28;20310;-71
2021/12/09 00:43:28;;;;;;;5.00;3.77;;;;;;;;;;5089912;28;20611;-71
2021/12/09 00:45:57;;;;;;;6.70;3.50;;;;;;;;;;5088511;28;20213;-71
2021/12/09 00:48:24;;;;;;;4.70;2.93;;;;;;;;;;5085247;28;20195;-71
2021/12/09 00:50:52;;;;;;;6.20;3.37;;;;;;;;;;5089498;28;20672;-71
2021/12/09 00:53:19;;;;;;;8.63;3.20;;;;;;;;;;5089265;28;20208;-70
2021/12/09 00:55:47;;;;;;;5.07;3.30;;;;;;;;;;5089792;28;20209;-71
2021/12/09 00:58:14;;;;;;;3.30;2.90;;;;;;;;;;5088824;28;20273;-71
2021/12/09 01:00:42;;;;;;;5.90;3.90;;;;;;;;;;5089177;28;20704;-70
2021/12/09 01:03:09;;;;;;;4.53;3.50;;;;;;;;;;5071411;28;20207;-71
2021/12/09 01:05:36;;;;;;;6.80;3.70;;;;;;;;;;5089322;28;20255;-71
2021/12/09 01:08:03;;;;;;;9.30;3.80;;;;;;;;;;5075801;28;20677;-70
2021/12/09 01:10:30;;;;;;;4.63;3.10;;;;;;;;;;5089198;28;20211;-71
2021/12/09 01:12:59;;;;;;;2.90;2.37;;;;;;;;;;5089379;28;20202;-70
2021/12/09 01:15:26;;;;;;;4.47;2.93;;;;;;;;;;5090016;28;20263;-72
2021/12/09 01:17:53;;;;;;;4.50;3.23;;;;;;;;;;5089266;28;20210;-70
2021/12/09 01:20:24;;;;;;;3.43;2.57;;;;;;;;;;5089140;28;20223;-70
2021/12/09 01:22:53;;;;;;;3.23;2.87;;;;;;;;;;5089712;28;20207;-70
2021/12/09 01:25:20;;;;;;;6.13;3.83;;;;;;;;;;5089748;28;20213;-70
2021/12/09 01:27:49;;;;;;;5.63;3.40;;;;;;;;;;5089674;28;20210;-70
2021/12/09 01:30:19;;;;;;;5.37;2.83;;;;;;;;;;5089119;28;20256;-70
2021/12/09 01:32:50;;;;;;;4.37;3.83;;;;;;;;;;5086125;28;20279;-70
2021/12/09 01:35:17;;;;;;;3.83;3.07;;;;;;;;;;5087856;28;20771;-71
2021/12/09 01:37:46;;;;;;;3.63;3.33;;;;;;;;;;5089660;28;20211;-71
2021/12/09 01:40:13;;;;;;;3.27;2.93;;;;;;;;;;5089369;28;20738;-70
2021/12/09 01:42:40;;;;;;;3.37;2.83;;;;;;;;;;5089283;28;20338;-71
2021/12/09 01:45:08;;;;;;;4.00;2.80;;;;;;;;;;5088733;28;20246;-70
2021/12/09 01:47:36;;;;;;;3.63;2.40;;;;;;;;;;5089116;28;20209;-69
2021/12/09 01:50:04;;;;;;;5.43;2.90;;;;;;;;;;5088930;28;20204;-70
2021/12/09 01:52:31;;;;;;;2.90;2.67;;;;;;;;;;5089413;28;20998;-70
2021/12/09 01:54:58;;;;;;;3.10;2.83;;;;;;;;;;5089211;28;20218;-69
2021/12/09 01:57:25;;;;;;;4.87;3.07;;;;;;;;;;5088280;28;20202;-70
2021/12/09 01:59:52;;;;;;;3.47;2.27;;;;;;;;;;5085941;28;20229;-70
2021/12/09 02:02:19;;;;;;;5.13;2.77;;;;;;;;;;5088660;28;20201;-67
2021/12/09 02:04:47;;;;;;;3.60;2.50;;;;;;;;;;5089199;28;20206;-70
2021/12/09 02:07:15;;;;;;;7.83;3.00;;;;;;;;;;5069292;28;20239;-70
2021/12/09 02:09:42;;;;;;;2.60;2.07;;;;;;;;;;5081542;28;20229;-70
2021/12/09 02:12:10;;;;;;;3.17;2.47;;;;;;;;;;5088452;28;20202;-69
2021/12/09 02:14:39;;;;;;;4.60;2.60;;;;;;;;;;5088969;28;20297;-70
2021/12/09 02:17:06;;;;;;;5.83;1.90;;;;;;;;;;5089112;28;20321;-70
2021/12/09 02:19:33;;;;;;;6.27;2.37;;;;;;;;;;5088850;28;20237;-70
2021/12/09 02:22:01;;;;;;;1.97;1.80;;;;;;;;;;5087115;28;21072;-69
2021/12/09 02:24:28;;;;;;;2.87;2.27;;;;;;;;;;5087535;28;20211;-70
2021/12/09 02:26:55;;;;;;;1.47;1.40;;;;;;;;;;5089067;28;20216;-70
2021/12/09 02:29:22;;;;;;;3.80;2.27;;;;;;;;;;5088407;28;20278;-70
2021/12/09 02:31:54;;;;;;;5.10;1.87;;;;;;;;;;5088694;28;20206;-70
2021/12/09 02:34:21;;;;;;;2.77;2.00;;;;;;;;;;5088342;28;20230;-69
2021/12/09 02:36:50;;;;;;;3.90;2.37;;;;;;;;;;5088656;28;20267;-69
2021/12/09 02:39:19;;;;;;;1.60;1.50;;;;;;;;;;5088242;28;20396;-70
2021/12/09 02:41:47;;;;;;;4.03;1.93;;;;;;;;;;5089146;28;20218;-70
2021/12/09 02:44:17;;;;;;;3.43;1.77;;;;;;;;;;5088812;28;20210;-70
2021/12/09 02:46:44;;;;;;;2.07;1.90;;;;;;;;;;5088293;28;20677;-70
2021/12/09 02:49:12;;;;;;;4.27;2.37;;;;;;;;;;5088753;28;20713;-70
2021/12/09 02:51:39;;;;;;;3.30;1.93;;;;;;;;;;5088029;28;20199;-69
2021/12/09 02:54:07;;;;;;;4.27;2.03;;;;;;;;;;5089802;28;20206;-70
2021/12/09 02:56:36;;;;;;;1.67;1.57;;;;;;;;;;5092145;28;20691;-70
2021/12/09 02:59:04;;;;;;;2.57;1.87;;;;;;;;;;5092589;28;20287;-70
2021/12/09 03:01:33;;;;;;;2.80;1.80;;;;;;;;;;5092564;28;20227;-70
2021/12/09 03:04:02;;;;;;;2.03;1.40;;;;;;;;;;5091648;28;20198;-70
2021/12/09 03:06:31;;;;;;;1.60;1.50;;;;;;;;;;5091932;28;20202;-70
2021/12/09 03:09:01;;;;;;;1.30;1.20;;;;;;;;;;5092118;28;20206;-70
2021/12/09 03:11:29;;;;;;;5.23;1.90;;;;;;;;;;5092390;28;20878;-70
2021/12/09 03:13:57;;;;;;;2.77;1.60;;;;;;;;;;5091827;28;20214;-71
2021/12/09 03:16:25;;;;;;;1.10;1.10;;;;;;;;;;5091975;28;20256;-70
2021/12/09 03:18:53;;;;;;;2.87;2.07;;;;;;;;;;5091770;28;20213;-70
2021/12/09 03:21:21;;;;;;;1.70;1.60;;;;;;;;;;5092245;28;20260;-70
2021/12/09 03:23:49;;;;;;;1.27;1.17;;;;;;;;;;5091534;28;20207;-70
2021/12/09 03:26:17;;;;;;;2.00;1.60;;;;;;;;;;5091714;28;20263;-70
2021/12/09 03:28:45;;;;;;;3.13;1.23;;;;;;;;;;5091761;28;20213;-70
2021/12/09 03:31:13;;;;;;;2.03;1.70;;;;;;;;;;5091863;28;20206;-70
2021/12/09 03:33:40;;;;;;;1.83;1.53;;;;;;;;;;5091172;28;20225;-70
2021/12/09 03:36:08;;;;;;;3.20;1.93;;;;;;;;;;5091201;28;20231;-70
2021/12/09 03:38:35;;;;;;;4.07;2.47;;;;;;;;;;5092163;28;20220;-69
2021/12/09 03:41:02;;;;;;;5.27;2.60;;;;;;;;;;5091660;28;20279;-69
2021/12/09 03:43:31;;;;;;;2.77;1.93;;;;;;;;;;5092044;28;20224;-69
2021/12/09 03:45:59;;;;;;;2.63;2.10;;;;;;;;;;5091606;28;20289;-69
2021/12/09 03:48:28;;;;;;;2.67;2.47;;;;;;;;;;5091168;28;20247;-70
2021/12/09 03:50:56;;;;;;;3.17;2.40;;;;;;;;;;5091723;28;20218;-70
2021/12/09 03:53:23;;;;;;;3.73;2.53;;;;;;;;;;5091000;28;20202;-70
2021/12/09 03:55:51;;;;;;;2.57;2.30;;;;;;;;;;5091054;28;21013;-70
2021/12/09 03:58:18;;;;;;;3.50;2.00;;;;;;;;;;5091034;28;20206;-70
2021/12/09 04:00:46;;;;;;;2.77;2.40;;;;;;;;;;5091199;28;20226;-70
2021/12/09 04:03:16;;;;;;;5.30;2.23;;;;;;;;;;5091367;28;20210;-70
2021/12/09 04:05:44;;;;;;;3.63;1.93;;;;;;;;;;5089221;28;20255;-70
2021/12/09 04:08:11;;;;;;;2.10;1.87;;;;;;;;;;5084708;28;20564;-68
2021/12/09 04:10:39;;;;;;;5.13;2.53;;;;;;;;;;5087979;28;20208;-69
2021/12/09 04:13:06;;;;;;;3.13;2.30;;;;;;;;;;5076959;28;20214;-68
2021/12/09 04:15:33;;;;;;;1.97;1.83;;;;;;;;;;5089578;28;20214;-68
2021/12/09 04:18:00;;;;;;;2.67;1.90;;;;;;;;;;5090290;28;20761;-68
2021/12/09 04:20:27;;;;;;;4.43;2.83;;;;;;;;;;5089689;28;20221;-67
2021/12/09 04:22:56;;;;;;;3.63;2.50;;;;;;;;;;5089867;28;20260;-68
2021/12/09 04:25:24;;;;;;;6.00;2.67;;;;;;;;;;5089779;28;20205;-68
2021/12/09 04:27:53;;;;;;;2.30;2.07;;;;;;;;;;5090104;28;20361;-68
2021/12/09 04:30:22;;;;;;;3.40;2.33;;;;;;;;;;5086458;28;20708;-68
2021/12/09 04:32:49;;;;;;;3.07;1.90;;;;;;;;;;5089251;28;20247;-68
2021/12/09 04:35:16;;;;;;;3.70;2.17;;;;;;;;;;5089168;28;20210;-69
2021/12/09 04:37:43;;;;;;;6.23;2.63;;;;;;;;;;5090114;28;20229;-68
2021/12/09 04:40:13;;;;;;;2.20;2.00;;;;;;;;;;5090509;28;20712;-68
2021/12/09 04:42:40;;;;;;;3.27;2.37;;;;;;;;;;5089839;28;20206;-68
2021/12/09 04:45:07;;;;;;;5.63;2.83;;;;;;;;;;5089918;28;20232;-68
2021/12/09 04:47:34;;;;;;;2.30;2.07;;;;;;;;;;5090199;28;20201;-68
2021/12/09 04:50:01;;;;;;;3.50;2.27;;;;;;;;;;5090273;28;20205;-68
2021/12/09 04:52:28;;;;;;;2.57;2.33;;;;;;;;;;5090103;28;20217;-69
2021/12/09 04:54:55;;;;;;;2.53;2.07;;;;;;;;;;5090357;28;20275;-69
2021/12/09 04:57:24;;;;;;;3.20;2.47;;;;;;;;;;5090111;28;20218;-68
2021/12/09 04:59:52;;;;;;;3.27;2.00;;;;;;;;;;5090105;28;20249;-69
2021/12/09 05:02:27;;;;;;;7.80;2.20;;;;;;;;;;5089456;28;20266;-68
2021/12/09 05:04:54;;;;;;;2.70;2.27;;;;;;;;;;5089392;28;20205;-68
2021/12/09 05:07:21;;;;;;;7.17;2.23;;;;;;;;;;5089538;28;21079;-68
2021/12/09 05:09:51;;;;;;;5.30;2.23;;;;;;;;;;5089099;28;20206;-68
2021/12/09 05:12:18;;;;;;;4.47;2.47;;;;;;;;;;5089365;28;20278;-68
2021/12/09 05:14:47;;;;;;;2.80;2.00;;;;;;;;;;5089183;28;20218;-68
2021/12/09 05:17:15;;;;;;;2.47;2.27;;;;;;;;;;5088720;28;20199;-68
2021/12/09 05:19:42;;;;;;;2.13;1.77;;;;;;;;;;5088632;28;20225;-69
2021/12/09 05:22:09;;;;;;;3.43;2.30;;;;;;;;;;5089276;28;20217;-69
2021/12/09 05:24:37;;;;;;;1.90;1.77;;;;;;;;;;5088599;28;20218;-68
2021/12/09 05:27:05;;;;;;;1.70;1.60;;;;;;;;;;5089223;28;20223;-69
2021/12/09 05:29:38;;;;;;;2.33;2.07;;;;;;;;;;5088173;28;20245;-68
2021/12/09 05:32:11;;;;;;;2.10;1.63;;;;;;;;;;5088487;28;20299;-69
2021/12/09 05:34:39;;;;;;;2.37;1.53;;;;;;;;;;5088742;28;20234;-68
2021/12/09 05:37:07;;;;;;;2.50;1.80;;;;;;;;;;5088824;28;20711;-68
2021/12/09 05:39:36;;;;;;;2.20;1.73;;;;;;;;;;5088553;28;20251;-68
2021/12/09 05:42:04;;;;;;;4.13;1.93;;;;;;;;;;5088572;28;20664;-69
2021/12/09 05:44:31;;;;;;;1.90;1.80;;;;;;;;;;5085259;28;20768;-69
2021/12/09 05:46:59;;;;;;;2.37;1.50;;;;;;;;;;5086515;28;20198;-68
2021/12/09 05:49:27;;;;;;;1.50;1.40;;;;;;;;;;5089030;28;20213;-70
2021/12/09 05:51:54;;;;;;;2.43;1.70;;;;;;;;;;5088685;28;20580;-68
2021/12/09 05:54:21;;;;;;;3.13;1.57;;;;;;;;;;5088503;28;20707;-68
2021/12/09 05:56:49;;;;;;;1.77;1.67;;;;;;;;;;5089214;28;20218;-68
2021/12/09 05:59:16;;;;;;;1.43;1.37;;;;;;;;;;5089127;28;20202;-68
2021/12/09 06:01:43;;;;;;;1.70;1.60;;;;;;;;;;5088291;28;20230;-68
2021/12/09 06:04:11;;;;;;;2.30;1.53;;;;;;;;;;5076214;28;20579;-68
2021/12/09 06:06:40;;;;;;;2.07;1.87;;;;;;;;;;5088647;28;20239;-69
2021/12/09 06:09:07;;;;;;;1.77;1.37;;;;;;;;;;5088786;28;20274;-69
2021/12/09 06:11:35;;;;;;;1.63;1.37;;;;;;;;;;5077923;28;20205;-68
2021/12/09 06:14:02;;;;;;;3.43;2.07;;;;;;;;;;5089162;28;20635;-69
2021/12/09 06:16:29;;;;;;;1.80;1.70;;;;;;;;;;5089105;28;20213;-69
2021/12/09 06:18:56;;;;;;;1.93;1.80;;;;;;;;;;5069160;28;20210;-68
2021/12/09 06:21:27;;;;;;;1.70;1.53;;;;;;;;;;5068808;28;20230;-69
2021/12/09 06:23:55;;;;;;;4.53;1.60;;;;;;;;;;5083267;28;20213;-68
2021/12/09 06:26:23;;;;;;;1.17;1.17;;;;;;;;;;5086779;28;20244;-71
2021/12/09 06:28:50;;;;;;;4.90;1.63;;;;;;;;;;5090014;28;20566;-69
2021/12/09 06:31:19;;;;;;;1.90;1.80;;;;;;;;;;5092871;28;20201;-68
2021/12/09 06:33:46;;;;;;;2.27;1.43;;;;;;;;;;5091636;28;20229;-69
2021/12/09 06:36:13;;;;;;;2.37;1.50;;;;;;;;;;5085542;28;20262;-68
2021/12/09 06:38:41;;;;;;;1.60;1.50;;;;;;;;;;5092918;28;20197;-68
2021/12/09 06:41:09;;;;;;;2.00;1.60;;;;;;;;;;5092808;28;20549;-68
2021/12/09 06:43:37;;;;;;;1.33;1.23;;;;;;;;;;5092367;28;20218;-68
2021/12/09 06:46:05;;;;;;;1.37;1.07;;;;;;;;;;5092642;28;20314;-69
2021/12/09 06:48:32;;;;;;;3.13;1.60;;;;;;;;;;5092488;28;20215;-65
2021/12/09 06:51:01;;;;;;;2.67;1.47;;;;;;;;;;5092503;28;20208;-67
2021/12/09 06:53:28;;;;;;;1.67;1.57;;;;;;;;;;5092181;28;20206;-67
2021/12/09 06:55:55;;;;;;;1.70;1.60;;;;;;;;;;5091054;28;20217;-67
2021/12/09 06:58:24;;;;;;;2.37;2.27;;;;;;;;;;5092184;28;20222;-66
2021/12/09 07:00:51;;;;;;;1.87;1.73;;;;;;;;;;5085539;28;20229;-67
2021/12/09 07:03:21;;;;;;;5.50;1.57;;;;;;;;;;5071725;28;20218;-68
2021/12/09 07:05:48;;;;;;;1.87;1.77;;;;;;;;;;5074294;28;20662;-68
2021/12/09 07:08:15;;;;;;;6.33;1.80;;;;;;;;;;5092441;28;20213;-68
2021/12/09 07:10:42;;;;;;;1.63;1.53;;;;;;;;;;5092143;28;20216;-68
2021/12/09 07:13:10;;;;;;;3.73;2.13;;;;;;;;;;5091729;28;20209;-68
2021/12/09 07:15:38;;;;;;;2.37;1.63;;;;;;;;;;5091991;28;20341;-68
2021/12/09 07:18:06;;;;;;;2.10;1.57;;;;;;;;;;5091957;28;20213;-68
2021/12/09 07:20:33;;;;;;;2.07;1.87;;;;;;;;;;5091937;28;20244;-68
2021/12/09 07:23:00;;;;;;;2.03;1.83;;;;;;;;;;5091917;28;20216;-68
2021/12/09 07:25:28;;;;;;;2.37;1.70;;;;;;;;;;5091726;28;20801;-68
2021/12/09 07:27:56;;;;;;;2.00;1.90;;;;;;;;;;5091435;28;20216;-68
2021/12/09 07:30:23;;;;;;;2.50;1.70;;;;;;;;;;5091620;28;20238;-68
2021/12/09 07:32:52;;;;;;;4.10;1.90;;;;;;;;;;5090757;28;20229;-66
2021/12/09 07:35:19;;;;;;;1.40;1.30;;;;;;;;;;5091562;28;20212;-67
2021/12/09 07:37:47;;;;;;;2.67;1.80;;;;;;;;;;5091576;28;20217;-67
2021/12/09 07:40:15;;;;;;;2.07;1.50;;;;;;;;;;5091284;28;20311;-66
2021/12/09 07:42:42;;;;;;;3.60;1.67;;;;;;;;;;5091418;28;20236;-66
2021/12/09 07:45:11;;;;;;;1.80;1.70;;;;;;;;;;5091472;28;20209;-67
2021/12/09 07:47:38;;;;;;;3.60;2.77;;;;;;;;;;5091424;28;20239;-67
2021/12/09 07:50:07;;;;;;;1.43;1.33;;;;;;;;;;5091458;28;20338;-67
2021/12/09 07:52:34;;;;;;;2.43;1.73;;;;;;;;;;5088879;28;20209;-67
2021/12/09 07:55:01;;;;;;;3.37;1.63;;;;;;;;;;5085552;28;20213;-70
2021/12/09 07:57:29;;;;;;;3.57;1.67;;;;;;;;;;5080571;28;20217;-68
2021/12/09 07:59:56;;;;;;;1.83;1.60;;;;;;;;;;5076593;28;20252;-70
2021/12/09 08:02:23;;;;;;;2.30;2.03;;;;;;;;;;5069793;28;20235;-66
2021/12/09 08:04:50;;;;;;;4.47;1.77;;;;;;;;;;5069500;28;20660;-66
2021/12/09 08:07:19;;;;;;;2.67;1.90;;;;;;;;;;5076931;28;20279;-69
2021/12/09 08:09:46;;;;;;;1.70;1.43;;;;;;;;;;5069133;28;20585;-65
2021/12/09 08:12:13;;;;;;;2.03;1.63;;;;;;;;;;5067961;28;20267;-69
2021/12/09 08:14:40;;;;;;;2.13;1.10;;;;;;;;;;5075560;28;20217;-70
2021/12/09 08:17:13;;;;;;;0.90;0.90;;;;;;;;;;5068341;28;20206;-70
2021/12/09 08:19:40;;;;;;;1.43;1.33;;;;;;;;;;5071790;28;20275;-70
2021/12/09 08:22:08;;;;;;;1.63;1.53;;;;;;;;;;5068245;28;20245;-70
2021/12/09 08:24:36;;;;;;;1.83;1.60;;;;;;;;;;5068578;28;20221;-70
2021/12/09 08:27:04;;;;;;;1.30;1.20;;;;;;;;;;5077226;28;20214;-70
2021/12/09 08:29:31;;;;;;;2.93;1.40;;;;;;;;;;5081147;28;20250;-70
2021/12/09 08:31:58;;;;;;;1.63;1.53;;;;;;;;;;5068888;28;20690;-70
2021/12/09 08:34:25;;;;;;;2.30;1.40;;;;;;;;;;5068358;28;20582;-70
2021/12/09 08:36:52;;;;;;;1.30;1.20;;;;;;;;;;5068283;28;20219;-69
2021/12/09 08:39:19;;;;;;;1.40;1.30;;;;;;;;;;5068641;28;20217;-69
2021/12/09 08:41:47;;;;;;;1.77;1.47;;;;;;;;;;5068601;28;20241;-70
2021/12/09 08:44:14;;;;;;;1.63;1.53;;;;;;;;;;5068502;28;20216;-69
2021/12/09 08:46:42;;;;;;;2.43;1.60;;;;;;;;;;5084334;28;20236;-70
2021/12/09 08:49:09;;;;;;;1.70;1.53;;;;;;;;;;5068347;28;20206;-70
2021/12/09 08:51:37;;;;;;;2.60;1.47;;;;;;;;;;5067995;28;20309;-69
2021/12/09 08:54:04;;;;;;;2.57;1.67;;;;;;;;;;5071450;28;20238;-70
2021/12/09 08:56:32;;;;;;;5.83;2.10;;;;;;;;;;5072366;28;20256;-70
2021/12/09 08:59:02;;;;;;;3.37;2.03;;;;;;;;;;5082680;28;20213;-69
2021/12/09 09:01:29;;;;;;;2.00;1.90;;;;;;;;;;5074561;28;20242;-70
2021/12/09 09:03:56;;;;;;;5.50;3.47;;;;;;;;;;5073738;28;20222;-69
2021/12/09 09:06:23;;;;;;;10.80;2.50;;;;;;;;;;5086449;28;20211;-70
2021/12/09 09:08:56;;;;;;;7.90;2.97;;;;;;;;;;5088764;28;20210;-71
2021/12/09 09:11:23;;;;;;;2.20;2.00;;;;;;;;;;5089369;28;20209;-69
2021/12/09 09:13:50;;;;;;;4.80;1.90;;;;;;;;;;5089559;28;20240;-74
2021/12/09 09:16:19;;;;;;;1.50;1.50;;;;;;;;;;5089383;28;20214;-72
2021/12/09 09:18:46;;;;;;;1.73;1.63;;;;;;;;;;5089781;28;20615;-70
2021/12/09 09:21:13;;;;;;;1.47;1.40;;;;;;;;;;5089831;28;20238;-68
2021/12/09 09:23:40;;;;;;;3.93;1.33;;;;;;;;;;5089840;28;20210;-69
2021/12/09 09:26:07;;;;;;;7.57;1.90;;;;;;;;;;5089543;28;20205;-68
2021/12/09 09:28:34;;;;;;;4.67;2.67;;;;;;;;;;5089044;28;20220;-69
2021/12/09 09:31:03;;;;;;;2.10;2.00;;;;;;;;;;5089328;28;20211;-68
2021/12/09 09:33:32;;;;;;;1.90;1.70;;;;;;;;;;5085541;28;20215;-68
2021/12/09 09:36:00;;;;;;;5.67;1.77;;;;;;;;;;5069288;28;20215;-68
2021/12/09 09:38:27;;;;;;;3.73;1.90;;;;;;;;;;5069072;28;20208;-69
2021/12/09 09:41:03;;;;;;;6.23;1.87;;;;;;;;;;5079274;28;20210;-68
2021/12/09 09:43:42;;;;;;;2.20;2.00;;;;;;;;;;5089087;28;20204;-70
2021/12/09 09:46:10;;;;;;;1.43;1.40;;;;;;;;;;5087155;28;20689;-69
2021/12/09 09:48:39;;;;;;;2.00;1.90;;;;;;;;;;5087023;28;20214;-69
2021/12/09 09:51:07;;;;;;;1.67;1.37;;;;;;;;;;5087751;28;20213;-70
2021/12/09 09:53:35;;;;;;;6.53;1.60;;;;;;;;;;5088188;28;20959;-70
2021/12/09 09:56:05;;;;;;;3.27;1.50;;;;;;;;;;5088493;28;21040;-69
2021/12/09 09:58:32;;;;;;;2.10;1.90;;;;;;;;;;5087399;28;20292;-69
2021/12/09 10:00:59;;;;;;;1.80;1.50;;;;;;;;;;5088194;28;20751;-69
2021/12/09 10:03:29;;;;;;;2.47;1.93;;;;;;;;;;5087386;28;20281;-70
2021/12/09 10:06:02;;;;;;;2.20;1.40;;;;;;;;;;5087960;28;20326;-69
2021/12/09 10:08:29;;;;;;;1.67;1.47;;;;;;;;;;5075125;28;20223;-70
2021/12/09 10:10:56;;;;;;;1.50;0.97;;;;;;;;;;5068099;28;20211;-69
2021/12/09 10:13:28;;;;;;;1.30;1.30;;;;;;;;;;5067593;28;20643;-71
2021/12/09 10:15:55;;;;;;;2.17;1.77;;;;;;;;;;5067873;28;20207;-70
2021/12/09 10:18:33;;;;;;;2.10;1.43;;;;;;;;;;5071622;28;20570;-70
2021/12/09 10:21:02;;;;;;;0.90;0.90;;;;;;;;;;5067883;28;20215;-71
2021/12/09 10:23:30;;;;;;;2.03;1.93;;;;;;;;;;5068111;28;20207;-69
2021/12/09 10:26:21;;;;;;;4.60;1.40;;;;;;;;;;5068045;28;20214;-71
2021/12/09 10:28:51;;;;;;;2.13;1.40;;;;;;;;;;5086300;28;20289;-70
2021/12/09 10:31:20;;;;;;;1.07;1.07;;;;;;;;;;5087999;28;20233;-71
2021/12/09 10:34:00;;;;;;;1.20;1.03;;;;;;;;;;5088135;28;20241;-69
2021/12/09 10:36:42;;;;;;;1.80;1.20;;;;;;;;;;5088615;28;20277;-71
2021/12/09 10:39:14;;;;;;;1.70;1.13;;;;;;;;;;5068590;28;20208;-69
2021/12/09 10:41:41;;;;;;;2.30;1.57;;;;;;;;;;5068227;28;20236;-68
2021/12/09 10:44:08;;;;;;;1.60;1.50;;;;;;;;;;5068295;28;20210;-75
2021/12/09 10:46:50;;;;;;;4.00;1.30;;;;;;;;;;5081807;28;20210;-71
2021/12/09 10:49:18;;;;;;;1.10;1.10;;;;;;;;;;5088595;28;20211;-69
2021/12/09 10:51:56;;;;;;;1.03;0.77;;;;;;;;;;5084370;28;20201;-69
2021/12/09 10:54:33;;;;;;;1.20;1.10;;;;;;;;;;5083138;28;20248;-69
2021/12/09 10:57:15;;;;;;;1.50;0.67;;;;;;;;;;5085494;28;20301;-73
2021/12/09 10:59:42;;;;;;;0.70;0.70;;;;;;;;;;5079240;28;20580;-73
2021/12/09 11:02:11;;;;;;;0.87;0.87;;;;;;;;;;5088444;28;20232;-73
2021/12/09 11:04:38;;;;;;;1.33;1.23;;;;;;;;;;5087798;28;20202;-76
2021/12/09 11:07:20;;;;;;;1.70;0.93;;;;;;;;;;5072956;28;20935;-73
2021/12/09 11:09:49;;;;;;;1.93;0.97;;;;;;;;;;5085032;28;20235;-70
2021/12/09 11:12:33;;;;;;;1.33;1.33;;;;;;;;;;5075314;28;20221;-75
2021/12/09 11:15:02;;;;;;;1.03;1.00;;;;;;;;;;5086774;28;20297;-76
2021/12/09 11:17:37;;;;;;;1.57;1.17;;;;;;;;;;5092188;28;20921;-73
2021/12/09 11:20:05;;;;;;;0.73;0.73;;;;;;;;;;5087127;28;20213;-73
2021/12/09 11:22:35;;;;;;;1.20;1.07;;;;;;;;;;5091760;28;20708;-73
2021/12/09 11:25:06;;;;;;;1.80;1.33;;;;;;;;;;5089396;28;20207;-73
2021/12/09 11:27:34;;;;;;;1.93;1.07;;;;;;;;;;5091631;28;20648;-73
2021/12/09 11:30:09;;;;;;;4.47;1.33;;;;;;;;;;5091559;28;20237;-73
2021/12/09 11:32:41;;;;;;;1.33;1.13;;;;;;;;;;5091834;28;20249;-72
2021/12/09 11:35:14;;;;;;;1.23;0.70;;;;;;;;;;5083165;28;20213;-68
2021/12/09 11:37:46;;;;;;;13.00;1.20;;;;;;;;;;5079574;28;20736;-72
2021/12/09 11:40:19;;;;;;;6.00;1.77;;;;;;;;;;5091855;28;20247;-70
2021/12/09 11:42:49;;;;;;;1.70;1.40;;;;;;;;;;5082459;28;20803;-71
2021/12/09 11:45:19;;;;;;;1.73;1.63;;;;;;;;;;5090465;28;20209;-71
2021/12/09 11:47:48;;;;;;;2.90;1.67;;;;;;;;;;5084129;28;20291;-70
2021/12/09 11:50:30;;;;;;;1.93;0.97;;;;;;;;;;5083964;28;20198;-70
2021/12/09 11:52:59;;;;;;;1.87;1.77;;;;;;;;;;5087760;28;20536;-75
2021/12/09 11:55:33;;;;;;;2.43;1.60;;;;;;;;;;5082259;28;20223;-70
2021/12/09 11:58:06;;;;;;;3.63;1.30;;;;;;;;;;5070172;28;20217;-70
2021/12/09 12:06:50;;;;;;;3.73;1.43;;;;;;;;;;5043717;28;20209;-70
2021/12/09 12:12:33;;;;;;;4.60;1.47;;;;;;;;;;5077919;28;20294;-69
2021/12/09 12:15:15;;;;;;;0.77;0.77;;;;;;;;;;5078403;28;20683;-69
2021/12/09 12:17:57;;;;;;;1.30;1.10;;;;;;;;;;5085506;28;20197;-74
2021/12/09 12:20:38;;;;;;;0.70;0.70;;;;;;;;;;5087775;28;20197;-69
2021/12/09 12:23:21;;;;;;;4.10;1.20;;;;;;;;;;5089356;28;20233;-70
2021/12/09 12:29:00;;;;;;;4.73;1.77;;;;;;;;;;5085307;28;20341;-73
2021/12/09 12:31:58;;;;;;;1.33;1.23;;;;;;;;;;5089561;28;20201;-72
2021/12/09 12:34:59;;;;;;;2.63;0.73;;;;;;;;;;5089553;28;20222;-71
2021/12/09 12:37:47;;;;;;;1.67;0.90;;;;;;;;;;5089304;28;20208;-70
2021/12/09 12:40:15;;;;;;;2.13;0.97;;;;;;;;;;5089820;28;20208;-70
2021/12/09 12:42:48;;;;;;;0.90;0.77;;;;;;;;;;5089698;28;20233;-70
2021/12/09 12:45:28;;;;;;;0.87;0.57;;;;;;;;;;5089564;28;20232;-73
2021/12/09 12:48:09;;;;;;;3.53;1.17;;;;;;;;;;5089514;28;20199;-69
2021/12/09 12:50:36;;;;;;;2.77;1.60;;;;;;;;;;5080825;28;20596;-75
2021/12/09 12:53:18;;;;;;;2.13;1.23;;;;;;;;;;5070074;28;20230;-71
2021/12/09 12:56:08;;;;;;;1.73;0.93;;;;;;;;;;5081494;28;20960;-74
2021/12/09 12:58:35;;;;;;;0.93;0.93;;;;;;;;;;5079520;28;20670;-73
2021/12/09 13:01:15;;;;;;;1.03;0.90;;;;;;;;;;5069898;28;20206;-73
2021/12/09 13:03:48;;;;;;;2.63;1.13;;;;;;;;;;5084745;28;20245;-73
2021/12/09 13:06:40;;;;;;;3.80;0.77;;;;;;;;;;5085133;28;20670;-73
2021/12/09 13:09:23;;;;;;;5.73;1.27;;;;;;;;;;5085123;28;20301;-72
2021/12/09 13:11:57;;;;;;;2.87;1.37;;;;;;;;;;5084710;28;20209;-72
2021/12/09 13:14:28;;;;;;;1.70;1.60;;;;;;;;;;5084989;28;20209;-73
2021/12/09 13:17:02;;;;;;;2.20;2.00;;;;;;;;;;5084093;28;20213;-73
2021/12/09 13:19:34;;;;;;;5.13;2.40;;;;;;;;;;5083728;28;20214;-73
2021/12/09 13:22:02;;;;;;;2.00;1.90;;;;;;;;;;5081611;28;20219;-73
2021/12/09 13:24:44;;;;;;;3.63;2.23;;;;;;;;;;5081643;28;20206;-72
2021/12/09 13:27:18;;;;;;;3.23;1.73;;;;;;;;;;5067287;28;20471;-71
2021/12/09 13:29:54;;;;;;;1.50;1.37;;;;;;;;;;5083248;28;20270;-72
2021/12/09 13:32:56;;;;;;;2.50;2.10;;;;;;;;;;5083249;28;20675;-72
2021/12/09 13:35:33;;;;;;;1.90;1.70;;;;;;;;;;5080850;28;20410;-71
2021/12/09 13:38:39;;;;;;;2.07;1.07;;;;;;;;;;5078003;28;20210;-72
2021/12/09 13:47:05;;;;;;;1.83;1.00;;;;;;;;;;5082554;28;20247;-70
2021/12/09 13:49:46;;;;;;;1.80;1.40;;;;;;;;;;5083482;28;20305;-71
2021/12/09 13:55:01;;;;;;;5.17;1.17;;;;;;;;;;5063065;28;20212;-71
2021/12/09 13:57:33;;;;;;;3.47;1.30;;;;;;;;;;5073329;28;20226;-72
2021/12/09 14:00:01;;;;;;;2.30;1.43;;;;;;;;;;5084175;28;20218;-72
2021/12/09 14:02:30;;;;;;;2.20;2.07;;;;;;;;;;5083010;28;20236;-73
2021/12/09 14:04:59;;;;;;;3.23;1.40;;;;;;;;;;5078827;28;20218;-72
2021/12/09 14:07:33;;;;;;;2.20;1.60;;;;;;;;;;5082934;28;20338;-72
2021/12/09 14:10:01;;;;;;;2.33;2.00;;;;;;;;;;5078961;28;20206;-72
2021/12/09 14:12:33;;;;;;;3.50;1.80;;;;;;;;;;5079711;28;20608;-72
2021/12/09 14:15:06;;;;;;;2.53;1.60;;;;;;;;;;5082838;28;20294;-73
2021/12/09 14:17:35;;;;;;;1.70;1.60;;;;;;;;;;5076201;28;20236;-72
2021/12/09 14:20:06;;;;;;;1.97;1.80;;;;;;;;;;5066909;28;20211;-72
2021/12/09 14:22:34;;;;;;;4.83;1.50;;;;;;;;;;5063915;28;20226;-72
2021/12/09 14:25:05;;;;;;;5.17;2.17;;;;;;;;;;5079780;28;20240;-72
2021/12/09 14:27:32;;;;;;;2.40;1.17;;;;;;;;;;5074295;28;20313;-72
2021/12/09 14:29:59;;;;;;;3.20;1.67;;;;;;;;;;5082252;28;20246;-72
2021/12/09 14:32:28;;;;;;;2.67;2.20;;;;;;;;;;5081248;28;20206;-71
2021/12/09 14:34:56;;;;;;;1.30;1.20;;;;;;;;;;5082828;28;20206;-71
2021/12/09 14:37:24;;;;;;;6.20;1.93;;;;;;;;;;5083283;28;20349;-71
2021/12/09 14:40:03;;;;;;;2.43;1.87;;;;;;;;;;5084154;28;20210;-73
2021/12/09 14:42:32;;;;;;;6.33;2.03;;;;;;;;;;5079027;28;20248;-74
2021/12/09 14:45:00;;;;;;;3.93;1.90;;;;;;;;;;5080167;28;20238;-72
2021/12/09 14:47:27;;;;;;;2.47;1.83;;;;;;;;;;5082032;28;20219;-72
2021/12/09 14:49:55;;;;;;;4.37;1.93;;;;;;;;;;5083904;28;20202;-72
2021/12/09 14:52:34;;;;;;;1.90;1.73;;;;;;;;;;5086536;28;20305;-72
2021/12/09 14:55:11;;;;;;;1.83;1.50;;;;;;;;;;5086272;28;20639;-72
2021/12/09 14:57:53;;;;;;;2.97;2.30;;;;;;;;;;5086485;28;20640;-72
2021/12/09 15:00:28;;;;;;;1.97;1.80;;;;;;;;;;5087143;28;20221;-73
2021/12/09 15:02:55;;;;;;;2.63;1.73;;;;;;;;;;5081054;28;20577;-71
2021/12/09 15:05:22;;;;;;;2.93;2.27;;;;;;;;;;5078387;28;20219;-73
2021/12/09 15:07:53;;;;;;;2.63;1.83;;;;;;;;;;5082183;28;20212;-71
2021/12/09 15:10:22;;;;;;;7.70;3.23;;;;;;;;;;5086355;28;20262;-70
2021/12/09 15:12:50;;;;;;;2.77;1.50;;;;;;;;;;5081848;28;20212;-70
2021/12/09 15:15:18;;;;;;;3.20;2.13;;;;;;;;;;5086771;28;20210;-73
2021/12/09 15:17:51;;;;;;;2.00;1.80;;;;;;;;;;5085729;28;20207;-73
2021/12/09 15:20:18;;;;;;;4.37;1.70;;;;;;;;;;5086990;28;20302;-72